sensor_id;sensor_type;location;lat;lon;timestamp;pressure;altitude;pressure_sealevel;temperature;humidity
15487;BME280;7845;53.698;10.078;2022-12-29T00:01:34;99513.81;;;9.27;100.00
15487;BME280;7845;53.698;10.078;2022-12-29T00:04:00;99516.16;;;9.38;100.00
15487;BME280;7845;53.698;10.078;2022-12-29T00:06:27;99505.75;;;9.38;100.00
15487;BME280;7845;53.698;10.078;2022-12-29T00:08:53;99506.81;;;9.29;100.00
15487;BME280;7845;53.698;10.078;2022-12-29T00:11:20;99501.44;;;9.37;100.00
15487;BME280;7845;53.698;10.078;2022-12-29T00:13:46;99493.66;;;9.35;100.00
15487;BME280;7845;53.698;10.078;2022-12-29T00:16:31;99491.03;;;9.37;100.00
15487;BME280;7845;53.698;10.078;2022-12-29T00:18:58;99485.03;;;9.33;100.00
15487;BME280;7845;53.698;10.078;2022-12-29T00:21:24;99472.91;;;9.32;100.00
15487;BME280;7845;53.698;10.078;2022-12-29T00:24:16;99475.56;;;9.31;100.00
15487;BME280;7845;53.698;10.078;2022-12-29T00:29:48;99455.47;;;9.36;100.00
15487;BME280;7845;53.698;10.078;2022-12-29T00:32:34;99455.28;;;9.43;100.00
15487;BME280;7845;53.698;10.078;2022-12-29T00:35:34;99449.94;;;9.48;100.00
15487;BME280;7845;53.698;10.078;2022-12-29T00:38:03;99455.16;;;9.48;100.00
15487;BME280;7845;53.698;10.078;2022-12-29T00:40:49;99450.81;;;9.49;100.00
15487;BME280;7845;53.698;10.078;2022-12-29T00:43:34;99445.63;;;9.47;100.00
15487;BME280;7845;53.698;10.078;2022-12-29T00:46:18;99445.53;;;9.52;100.00
15487;BME280;7845;53.698;10.078;2022-12-29T00:48:44;99435.25;;;9.45;100.00
15487;BME280;7845;53.698;10.078;2022-12-29T00:51:29;99442.06;;;9.51;100.00
15487;BME280;7845;53.698;10.078;2022-12-29T00:53:54;99448.91;;;9.55;100.00
15487;BME280;7845;53.698;10.078;2022-12-29T00:56:19;99441.03;;;9.58;100.00
15487;BME280;7845;53.698;10.078;2022-12-29T00:58:45;99446.19;;;9.60;100.00
15487;BME280;7845;53.698;10.078;2022-12-29T01:01:10;99432.13;;;9.65;100.00
15487;BME280;7845;53.698;10.078;2022-12-29T01:03:37;99438.13;;;9.70;100.00
15487;BME280;7845;53.698;10.078;2022-12-29T01:06:08;99429.44;;;9.70;100.00
15487;BME280;7845;53.698;10.078;2022-12-29T01:08:35;99428.59;;;9.68;100.00
15487;BME280;7845;53.698;10.078;2022-12-29T01:11:07;99439.72;;;9.74;100.00
15487;BME280;7845;53.698;10.078;2022-12-29T01:13:33;99436.38;;;9.69;100.00
15487;BME280;7845;53.698;10.078;2022-12-29T01:15:58;99430.41;;;9.66;100.00
15487;BME280;7845;53.698;10.078;2022-12-29T01:18:25;99431.19;;;9.69;100.00
15487;BME280;7845;53.698;10.078;2022-12-29T01:21:19;99434.72;;;9.67;100.00
15487;BME280;7845;53.698;10.078;2022-12-29T01:23:44;99437.19;;;9.71;100.00
15487;BME280;7845;53.698;10.078;2022-12-29T01:26:15;99435.44;;;9.73;100.00
15487;BME280;7845;53.698;10.078;2022-12-29T01:28:41;99431.03;;;9.74;100.00
15487;BME280;7845;53.698;10.078;2022-12-29T01:31:11;99429.50;;;9.67;100.00
15487;BME280;7845;53.698;10.078;2022-12-29T01:33:37;99421.66;;;9.68;100.00
15487;BME280;7845;53.698;10.078;2022-12-29T01:36:04;99423.19;;;9.75;100.00
15487;BME280;7845;53.698;10.078;2022-12-29T01:38:30;99419.72;;;9.76;100.00
15487;BME280;7845;53.698;10.078;2022-12-29T01:40:56;99423.44;;;9.98;100.00
15487;BME280;7845;53.698;10.078;2022-12-29T01:43:41;99426.09;;;9.97;100.00
15487;BME280;7845;53.698;10.078;2022-12-29T01:46:23;99407.56;;;10.08;100.00
15487;BME280;7845;53.698;10.078;2022-12-29T01:51:35;99420.59;;;10.08;100.00
15487;BME280;7845;53.698;10.078;2022-12-29T01:54:05;99423.28;;;10.05;100.00
15487;BME280;7845;53.698;10.078;2022-12-29T01:56:35;99410.31;;;10.03;100.00
15487;BME280;7845;53.698;10.078;2022-12-29T01:59:09;99419.69;;;10.09;100.00
15487;BME280;7845;53.698;10.078;2022-12-29T02:01:37;99417.44;;;9.96;100.00
15487;BME280;7845;53.698;10.078;2022-12-29T02:04:03;99410.88;;;10.14;100.00
15487;BME280;7845;53.698;10.078;2022-12-29T02:06:36;99408.28;;;10.14;100.00
15487;BME280;7845;53.698;10.078;2022-12-29T02:09:05;99425.69;;;10.12;100.00
15487;BME280;7845;53.698;10.078;2022-12-29T02:11:30;99412.94;;;10.01;100.00
15487;BME280;7845;53.698;10.078;2022-12-29T02:13:56;99400.53;;;10.10;100.00
15487;BME280;7845;53.698;10.078;2022-12-29T02:16:59;99404.16;;;10.06;100.00
15487;BME280;7845;53.698;10.078;2022-12-29T02:27:49;99395.94;;;10.21;100.00
15487;BME280;7845;53.698;10.078;2022-12-29T02:33:58;99387.06;;;10.26;100.00
15487;BME280;7845;53.698;10.078;2022-12-29T02:36:05;99394.34;;;10.15;100.00
15487;BME280;7845;53.698;10.078;2022-12-29T02:38:59;99371.69;;;10.17;100.00
15487;BME280;7845;53.698;10.078;2022-12-29T02:41:31;99374.22;;;10.20;100.00
15487;BME280;7845;53.698;10.078;2022-12-29T02:47:45;99370.09;;;10.12;100.00
15487;BME280;7845;53.698;10.078;2022-12-29T02:49:57;99372.53;;;10.18;100.00
15487;BME280;7845;53.698;10.078;2022-12-29T02:52:39;99371.63;;;10.19;100.00
15487;BME280;7845;53.698;10.078;2022-12-29T02:55:06;99364.66;;;10.19;100.00
15487;BME280;7845;53.698;10.078;2022-12-29T02:57:35;99370.75;;;10.20;100.00
15487;BME280;7845;53.698;10.078;2022-12-29T03:00:07;99374.28;;;10.17;100.00
15487;BME280;7845;53.698;10.078;2022-12-29T03:02:44;99382.19;;;10.14;100.00
15487;BME280;7845;53.698;10.078;2022-12-29T03:05:46;99369.03;;;10.19;100.00
15487;BME280;7845;53.698;10.078;2022-12-29T03:08:44;99377.78;;;10.16;100.00
15487;BME280;7845;53.698;10.078;2022-12-29T03:11:13;99376.63;;;10.26;100.00
15487;BME280;7845;53.698;10.078;2022-12-29T03:14:26;99379.16;;;10.29;100.00
15487;BME280;7845;53.698;10.078;2022-12-29T03:17:24;99378.44;;;10.24;100.00
15487;BME280;7845;53.698;10.078;2022-12-29T03:19:58;99383.84;;;10.18;100.00
15487;BME280;7845;53.698;10.078;2022-12-29T03:22:27;99374.91;;;10.25;100.00
15487;BME280;7845;53.698;10.078;2022-12-29T03:25:22;99352.31;;;10.26;100.00
15487;BME280;7845;53.698;10.078;2022-12-29T03:27:53;99355.72;;;10.28;100.00
15487;BME280;7845;53.698;10.078;2022-12-29T03:30:21;99359.97;;;10.32;100.00
15487;BME280;7845;53.698;10.078;2022-12-29T03:32:51;99357.31;;;10.33;100.00
15487;BME280;7845;53.698;10.078;2022-12-29T03:35:23;99343.59;;;10.27;100.00
15487;BME280;7845;53.698;10.078;2022-12-29T03:38:04;99345.19;;;10.31;100.00
15487;BME280;7845;53.698;10.078;2022-12-29T03:40:32;99342.41;;;10.37;100.00
15487;BME280;7845;53.698;10.078;2022-12-29T03:42:59;99347.09;;;10.26;100.00
15487;BME280;7845;53.698;10.078;2022-12-29T03:45:27;99352.22;;;10.29;100.00
15487;BME280;7845;53.698;10.078;2022-12-29T03:47:53;99349.00;;;10.21;100.00
15487;BME280;7845;53.698;10.078;2022-12-29T03:50:19;99351.28;;;10.31;100.00
15487;BME280;7845;53.698;10.078;2022-12-29T03:52:44;99356.50;;;10.31;100.00
15487;BME280;7845;53.698;10.078;2022-12-29T03:55:09;99346.03;;;10.33;100.00
15487;BME280;7845;53.698;10.078;2022-12-29T03:57:35;99346.28;;;10.24;100.00
15487;BME280;7845;53.698;10.078;2022-12-29T04:00:00;99346.16;;;10.28;100.00
15487;BME280;7845;53.698;10.078;2022-12-29T04:02:26;99332.03;;;10.35;100.00
15487;BME280;7845;53.698;10.078;2022-12-29T04:05:00;99328.75;;;10.29;100.00
15487;BME280;7845;53.698;10.078;2022-12-29T04:07:25;99323.34;;;10.35;100.00
15487;BME280;7845;53.698;10.078;2022-12-29T04:09:51;99308.69;;;10.31;100.00
15487;BME280;7845;53.698;10.078;2022-12-29T04:12:16;99322.75;;;10.27;100.00
15487;BME280;7845;53.698;10.078;2022-12-29T04:14:43;99319.38;;;10.23;100.00
15487;BME280;7845;53.698;10.078;2022-12-29T04:17:08;99310.75;;;10.21;100.00
15487;BME280;7845;53.698;10.078;2022-12-29T04:19:34;99317.34;;;10.33;100.00
15487;BME280;7845;53.698;10.078;2022-12-29T04:22:00;99310.25;;;10.36;100.00
15487;BME280;7845;53.698;10.078;2022-12-29T04:24:26;99318.03;;;10.38;100.00
15487;BME280;7845;53.698;10.078;2022-12-29T04:26:51;99323.34;;;10.35;100.00
15487;BME280;7845;53.698;10.078;2022-12-29T04:29:17;99320.84;;;10.32;100.00
15487;BME280;7845;53.698;10.078;2022-12-29T04:31:42;99313.78;;;10.35;100.00
15487;BME280;7845;53.698;10.078;2022-12-29T04:34:08;99319.09;;;10.32;100.00
15487;BME280;7845;53.698;10.078;2022-12-29T04:36:33;99309.50;;;10.33;100.00
15487;BME280;7845;53.698;10.078;2022-12-29T04:38:58;99299.28;;;10.27;100.00
15487;BME280;7845;53.698;10.078;2022-12-29T04:41:24;99298.34;;;10.28;100.00
15487;BME280;7845;53.698;10.078;2022-12-29T04:43:49;99276.47;;;10.33;100.00
15487;BME280;7845;53.698;10.078;2022-12-29T04:46:17;99290.97;;;10.42;100.00
15487;BME280;7845;53.698;10.078;2022-12-29T04:48:42;99297.19;;;10.38;100.00
15487;BME280;7845;53.698;10.078;2022-12-29T04:51:07;99285.78;;;10.40;100.00
15487;BME280;7845;53.698;10.078;2022-12-29T04:53:33;99282.50;;;10.34;100.00
15487;BME280;7845;53.698;10.078;2022-12-29T04:55:58;99285.97;;;10.34;100.00
15487;BME280;7845;53.698;10.078;2022-12-29T04:58:24;99284.06;;;10.39;100.00
15487;BME280;7845;53.698;10.078;2022-12-29T05:00:50;99277.94;;;10.42;100.00
15487;BME280;7845;53.698;10.078;2022-12-29T05:03:16;99281.28;;;10.45;100.00
15487;BME280;7845;53.698;10.078;2022-12-29T05:05:41;99274.28;;;10.47;100.00
15487;BME280;7845;53.698;10.078;2022-12-29T05:08:07;99266.28;;;10.52;100.00
15487;BME280;7845;53.698;10.078;2022-12-29T05:10:32;99274.03;;;10.55;100.00
15487;BME280;7845;53.698;10.078;2022-12-29T05:12:57;99271.78;;;10.43;100.00
15487;BME280;7845;53.698;10.078;2022-12-29T05:15:25;99267.59;;;10.39;100.00
15487;BME280;7845;53.698;10.078;2022-12-29T05:17:50;99259.00;;;10.35;100.00
15487;BME280;7845;53.698;10.078;2022-12-29T05:20:16;99267.72;;;10.34;100.00
15487;BME280;7845;53.698;10.078;2022-12-29T05:22:41;99260.69;;;10.36;100.00
15487;BME280;7845;53.698;10.078;2022-12-29T05:25:07;99252.50;;;10.48;100.00
15487;BME280;7845;53.698;10.078;2022-12-29T05:27:33;99255.25;;;10.44;100.00
15487;BME280;7845;53.698;10.078;2022-12-29T05:29:59;99263.31;;;10.36;100.00
15487;BME280;7845;53.698;10.078;2022-12-29T05:32:25;99249.19;;;10.43;100.00
15487;BME280;7845;53.698;10.078;2022-12-29T05:34:51;99252.56;;;10.47;100.00
15487;BME280;7845;53.698;10.078;2022-12-29T05:37:16;99259.78;;;10.39;100.00
15487;BME280;7845;53.698;10.078;2022-12-29T05:39:41;99262.09;;;10.48;100.00
15487;BME280;7845;53.698;10.078;2022-12-29T05:42:07;99268.28;;;10.44;100.00
15487;BME280;7845;53.698;10.078;2022-12-29T05:44:32;99253.50;;;10.44;100.00
15487;BME280;7845;53.698;10.078;2022-12-29T05:46:58;99258.34;;;10.57;100.00
15487;BME280;7845;53.698;10.078;2022-12-29T05:49:23;99253.81;;;10.62;100.00
15487;BME280;7845;53.698;10.078;2022-12-29T05:51:49;99247.94;;;10.55;100.00
15487;BME280;7845;53.698;10.078;2022-12-29T05:54:14;99241.25;;;10.46;100.00
15487;BME280;7845;53.698;10.078;2022-12-29T05:56:39;99241.81;;;10.56;100.00
15487;BME280;7845;53.698;10.078;2022-12-29T05:59:04;99224.31;;;10.60;100.00
15487;BME280;7845;53.698;10.078;2022-12-29T06:01:30;99222.69;;;10.55;100.00
15487;BME280;7845;53.698;10.078;2022-12-29T06:03:55;99221.75;;;10.58;100.00
15487;BME280;7845;53.698;10.078;2022-12-29T06:06:20;99227.03;;;10.57;100.00
15487;BME280;7845;53.698;10.078;2022-12-29T06:08:46;99217.47;;;10.55;100.00
15487;BME280;7845;53.698;10.078;2022-12-29T06:11:11;99221.09;;;10.51;100.00
15487;BME280;7845;53.698;10.078;2022-12-29T06:13:37;99218.16;;;10.62;100.00
15487;BME280;7845;53.698;10.078;2022-12-29T06:16:02;99226.81;;;10.63;100.00
15487;BME280;7845;53.698;10.078;2022-12-29T06:18:28;99226.72;;;10.66;100.00
15487;BME280;7845;53.698;10.078;2022-12-29T06:20:59;99225.00;;;10.65;100.00
15487;BME280;7845;53.698;10.078;2022-12-29T06:23:25;99222.56;;;10.60;100.00
15487;BME280;7845;53.698;10.078;2022-12-29T06:25:51;99225.22;;;10.59;100.00
15487;BME280;7845;53.698;10.078;2022-12-29T06:28:16;99225.38;;;10.54;100.00
15487;BME280;7845;53.698;10.078;2022-12-29T06:30:43;99216.50;;;10.60;100.00
15487;BME280;7845;53.698;10.078;2022-12-29T06:33:09;99212.06;;;10.62;100.00
15487;BME280;7845;53.698;10.078;2022-12-29T06:35:35;99220.69;;;10.64;100.00
15487;BME280;7845;53.698;10.078;2022-12-29T06:38:01;99220.78;;;10.61;100.00
15487;BME280;7845;53.698;10.078;2022-12-29T06:40:26;99215.53;;;10.62;100.00
15487;BME280;7845;53.698;10.078;2022-12-29T06:42:52;99208.59;;;10.61;100.00
15487;BME280;7845;53.698;10.078;2022-12-29T06:45:17;99219.09;;;10.60;100.00
15487;BME280;7845;53.698;10.078;2022-12-29T06:47:42;99209.00;;;10.49;100.00
15487;BME280;7845;53.698;10.078;2022-12-29T06:50:08;99214.84;;;10.57;100.00
15487;BME280;7845;53.698;10.078;2022-12-29T06:52:33;99217.44;;;10.57;100.00
15487;BME280;7845;53.698;10.078;2022-12-29T06:54:59;99211.56;;;10.50;100.00
15487;BME280;7845;53.698;10.078;2022-12-29T06:57:25;99204.53;;;10.52;100.00
15487;BME280;7845;53.698;10.078;2022-12-29T06:59:52;99201.91;;;10.54;100.00
15487;BME280;7845;53.698;10.078;2022-12-29T07:02:21;99205.31;;;10.56;100.00
15487;BME280;7845;53.698;10.078;2022-12-29T07:04:46;99207.81;;;10.59;100.00
15487;BME280;7845;53.698;10.078;2022-12-29T07:07:11;99215.47;;;10.64;100.00
15487;BME280;7845;53.698;10.078;2022-12-29T07:09:37;99215.72;;;10.56;100.00
15487;BME280;7845;53.698;10.078;2022-12-29T07:12:02;99220.94;;;10.56;100.00
15487;BME280;7845;53.698;10.078;2022-12-29T07:14:28;99215.75;;;10.54;100.00
15487;BME280;7845;53.698;10.078;2022-12-29T07:16:56;99219.41;;;10.50;100.00
15487;BME280;7845;53.698;10.078;2022-12-29T07:19:21;99226.50;;;10.45;100.00
15487;BME280;7845;53.698;10.078;2022-12-29T07:21:46;99231.00;;;10.42;100.00
15487;BME280;7845;53.698;10.078;2022-12-29T07:24:12;99242.56;;;10.33;100.00
15487;BME280;7845;53.698;10.078;2022-12-29T07:26:37;99233.91;;;10.31;100.00
15487;BME280;7845;53.698;10.078;2022-12-29T07:29:04;99246.16;;;10.29;100.00
15487;BME280;7845;53.698;10.078;2022-12-29T07:31:29;99258.16;;;10.35;100.00
15487;BME280;7845;53.698;10.078;2022-12-29T07:33:54;99257.63;;;10.24;100.00
15487;BME280;7845;53.698;10.078;2022-12-29T07:36:20;99262.09;;;10.20;100.00
15487;BME280;7845;53.698;10.078;2022-12-29T07:38:46;99261.19;;;10.21;100.00
15487;BME280;7845;53.698;10.078;2022-12-29T07:41:11;99261.91;;;10.26;100.00
15487;BME280;7845;53.698;10.078;2022-12-29T07:43:36;99265.88;;;10.38;100.00
15487;BME280;7845;53.698;10.078;2022-12-29T07:46:02;99266.69;;;10.40;100.00
15487;BME280;7845;53.698;10.078;2022-12-29T07:48:27;99261.34;;;10.44;100.00
15487;BME280;7845;53.698;10.078;2022-12-29T07:50:53;99261.16;;;10.49;100.00
15487;BME280;7845;53.698;10.078;2022-12-29T07:53:19;99265.59;;;10.47;100.00
15487;BME280;7845;53.698;10.078;2022-12-29T07:55:44;99268.91;;;10.52;100.00
15487;BME280;7845;53.698;10.078;2022-12-29T07:58:10;99270.72;;;10.50;100.00
15487;BME280;7845;53.698;10.078;2022-12-29T08:00:35;99279.53;;;10.46;100.00
15487;BME280;7845;53.698;10.078;2022-12-29T08:03:02;99281.44;;;10.41;100.00
15487;BME280;7845;53.698;10.078;2022-12-29T08:05:28;99283.25;;;10.39;100.00
15487;BME280;7845;53.698;10.078;2022-12-29T08:07:53;99287.50;;;10.41;100.00
15487;BME280;7845;53.698;10.078;2022-12-29T08:10:18;99281.44;;;10.41;100.00
15487;BME280;7845;53.698;10.078;2022-12-29T08:12:43;99287.44;;;10.43;100.00
15487;BME280;7845;53.698;10.078;2022-12-29T08:15:10;99297.47;;;10.57;100.00
15487;BME280;7845;53.698;10.078;2022-12-29T08:17:37;99297.66;;;10.50;100.00
15487;BME280;7845;53.698;10.078;2022-12-29T08:20:03;99311.47;;;10.54;100.00
15487;BME280;7845;53.698;10.078;2022-12-29T08:22:28;99322.72;;;10.54;100.00
15487;BME280;7845;53.698;10.078;2022-12-29T08:24:54;99319.31;;;10.52;100.00
15487;BME280;7845;53.698;10.078;2022-12-29T08:27:19;99322.03;;;10.49;100.00
15487;BME280;7845;53.698;10.078;2022-12-29T08:29:45;99329.00;;;10.49;100.00
15487;BME280;7845;53.698;10.078;2022-12-29T08:32:11;99334.88;;;10.55;100.00
15487;BME280;7845;53.698;10.078;2022-12-29T08:34:38;99339.34;;;10.52;100.00
15487;BME280;7845;53.698;10.078;2022-12-29T08:37:04;99347.31;;;10.47;100.00
15487;BME280;7845;53.698;10.078;2022-12-29T08:39:30;99357.84;;;10.44;100.00
15487;BME280;7845;53.698;10.078;2022-12-29T08:41:56;99353.22;;;10.54;100.00
15487;BME280;7845;53.698;10.078;2022-12-29T08:44:22;99363.50;;;10.59;100.00
15487;BME280;7845;53.698;10.078;2022-12-29T08:46:47;99353.81;;;10.62;100.00
15487;BME280;7845;53.698;10.078;2022-12-29T08:49:12;99352.78;;;10.68;100.00
15487;BME280;7845;53.698;10.078;2022-12-29T08:51:38;99347.47;;;10.71;100.00
15487;BME280;7845;53.698;10.078;2022-12-29T08:54:04;99359.56;;;10.73;100.00
15487;BME280;7845;53.698;10.078;2022-12-29T08:56:29;99360.59;;;10.68;100.00
15487;BME280;7845;53.698;10.078;2022-12-29T08:58:54;99360.50;;;10.71;100.00
15487;BME280;7845;53.698;10.078;2022-12-29T09:01:20;99363.97;;;10.71;100.00
15487;BME280;7845;53.698;10.078;2022-12-29T09:03:46;99367.34;;;10.75;100.00
15487;BME280;7845;53.698;10.078;2022-12-29T09:06:14;99359.44;;;10.78;100.00
15487;BME280;7845;53.698;10.078;2022-12-29T09:08:40;99367.78;;;10.87;100.00
15487;BME280;7845;53.698;10.078;2022-12-29T09:13:39;99372.28;;;10.84;100.00
15487;BME280;7845;53.698;10.078;2022-12-29T09:16:04;99377.34;;;10.88;100.00
15487;BME280;7845;53.698;10.078;2022-12-29T09:18:30;99385.19;;;10.88;100.00
15487;BME280;7845;53.698;10.078;2022-12-29T09:20:58;99388.59;;;10.90;100.00
15487;BME280;7845;53.698;10.078;2022-12-29T09:23:24;99385.84;;;10.95;100.00
15487;BME280;7845;53.698;10.078;2022-12-29T09:25:50;99384.09;;;10.95;100.00
15487;BME280;7845;53.698;10.078;2022-12-29T09:28:15;99384.97;;;10.94;100.00
15487;BME280;7845;53.698;10.078;2022-12-29T09:30:41;99399.84;;;10.92;100.00
15487;BME280;7845;53.698;10.078;2022-12-29T09:33:07;99406.66;;;10.96;100.00
15487;BME280;7845;53.698;10.078;2022-12-29T09:35:33;99420.44;;;11.01;100.00
15487;BME280;7845;53.698;10.078;2022-12-29T09:37:58;99416.09;;;11.02;100.00
15487;BME280;7845;53.698;10.078;2022-12-29T09:40:29;99430.63;;;11.10;100.00
15487;BME280;7845;53.698;10.078;2022-12-29T09:43:12;99426.38;;;11.06;100.00
15487;BME280;7845;53.698;10.078;2022-12-29T09:46:12;99431.34;;;11.14;100.00
15487;BME280;7845;53.698;10.078;2022-12-29T09:48:44;99434.03;;;11.13;100.00
15487;BME280;7845;53.698;10.078;2022-12-29T09:51:20;99440.03;;;11.15;100.00
15487;BME280;7845;53.698;10.078;2022-12-29T09:53:55;99446.13;;;11.15;100.00
15487;BME280;7845;53.698;10.078;2022-12-29T09:56:23;99444.38;;;11.16;100.00
15487;BME280;7845;53.698;10.078;2022-12-29T09:59:05;99454.91;;;11.13;100.00
15487;BME280;7845;53.698;10.078;2022-12-29T10:01:44;99461.84;;;11.14;100.00
15487;BME280;7845;53.698;10.078;2022-12-29T10:04:11;99461.66;;;11.20;100.00
15487;BME280;7845;53.698;10.078;2022-12-29T10:06:57;99472.81;;;11.25;100.00
15487;BME280;7845;53.698;10.078;2022-12-29T10:09:34;99471.38;;;11.15;100.00
15487;BME280;7845;53.698;10.078;2022-12-29T10:12:29;99474.94;;;11.12;100.00
15487;BME280;7845;53.698;10.078;2022-12-29T10:18:14;99482.88;;;11.09;100.00
15487;BME280;7845;53.698;10.078;2022-12-29T10:20:52;99476.06;;;11.05;100.00
15487;BME280;7845;53.698;10.078;2022-12-29T10:23:36;99475.84;;;11.11;100.00
15487;BME280;7845;53.698;10.078;2022-12-29T10:26:10;99479.09;;;11.19;100.00
15487;BME280;7845;53.698;10.078;2022-12-29T10:28:42;99481.50;;;11.25;100.00
15487;BME280;7845;53.698;10.078;2022-12-29T10:31:16;99471.06;;;11.25;100.00
15487;BME280;7845;53.698;10.078;2022-12-29T10:33:45;99487.44;;;11.30;100.00
15487;BME280;7845;53.698;10.078;2022-12-29T10:36:19;99480.66;;;11.25;100.00
15487;BME280;7845;53.698;10.078;2022-12-29T10:38:58;99478.41;;;11.13;100.00
15487;BME280;7845;53.698;10.078;2022-12-29T10:41:28;99493.22;;;11.12;100.00
15487;BME280;7845;53.698;10.078;2022-12-29T10:44:00;99488.88;;;11.11;100.00
15487;BME280;7845;53.698;10.078;2022-12-29T10:46:29;99483.88;;;11.05;100.00
15487;BME280;7845;53.698;10.078;2022-12-29T10:48:55;99489.03;;;11.06;100.00
15487;BME280;7845;53.698;10.078;2022-12-29T10:51:34;99496.69;;;11.13;100.00
15487;BME280;7845;53.698;10.078;2022-12-29T10:54:15;99489.47;;;11.21;100.00
15487;BME280;7845;53.698;10.078;2022-12-29T10:57:07;99496.34;;;11.23;100.00
15487;BME280;7845;53.698;10.078;2022-12-29T10:59:33;99494.56;;;11.25;100.00
15487;BME280;7845;53.698;10.078;2022-12-29T11:02:18;99492.00;;;11.24;100.00
15487;BME280;7845;53.698;10.078;2022-12-29T11:05:10;99486.81;;;11.22;100.00
15487;BME280;7845;53.698;10.078;2022-12-29T11:07:42;99493.50;;;11.31;100.00
15487;BME280;7845;53.698;10.078;2022-12-29T11:13:02;99501.84;;;11.43;100.00
15487;BME280;7845;53.698;10.078;2022-12-29T11:15:39;99498.38;;;11.41;100.00
15487;BME280;7845;53.698;10.078;2022-12-29T11:18:04;99498.66;;;11.34;100.00
15487;BME280;7845;53.698;10.078;2022-12-29T11:20:38;99500.47;;;11.32;100.00
15487;BME280;7845;53.698;10.078;2022-12-29T11:23:28;99514.16;;;11.38;100.00
15487;BME280;7845;53.698;10.078;2022-12-29T11:28:36;99507.19;;;11.39;100.00
15487;BME280;7845;53.698;10.078;2022-12-29T11:31:03;99505.25;;;11.45;100.00
15487;BME280;7845;53.698;10.078;2022-12-29T11:33:37;99510.97;;;11.56;100.00
15487;BME280;7845;53.698;10.078;2022-12-29T11:36:23;99505.63;;;11.61;100.00
15487;BME280;7845;53.698;10.078;2022-12-29T11:38:52;99518.72;;;11.59;100.00
15487;BME280;7845;53.698;10.078;2022-12-29T11:41:38;99522.94;;;11.63;100.00
15487;BME280;7845;53.698;10.078;2022-12-29T11:44:05;99509.47;;;11.49;100.00
15487;BME280;7845;53.698;10.078;2022-12-29T11:46:36;99515.75;;;11.44;100.00
15487;BME280;7845;53.698;10.078;2022-12-29T11:49:04;99517.59;;;11.40;100.00
15487;BME280;7845;53.698;10.078;2022-12-29T11:51:43;99500.38;;;11.35;100.00
15487;BME280;7845;53.698;10.078;2022-12-29T11:54:27;99516.69;;;11.41;100.00
15487;BME280;7845;53.698;10.078;2022-12-29T11:56:55;99515.03;;;11.39;100.00
15487;BME280;7845;53.698;10.078;2022-12-29T12:02:08;99521.78;;;11.46;100.00
15487;BME280;7845;53.698;10.078;2022-12-29T12:04:37;99529.75;;;11.41;100.00
15487;BME280;7845;53.698;10.078;2022-12-29T12:07:17;99527.22;;;11.38;100.00
15487;BME280;7845;53.698;10.078;2022-12-29T12:09:58;99525.44;;;11.40;100.00
15487;BME280;7845;53.698;10.078;2022-12-29T12:12:43;99542.78;;;11.43;100.00
15487;BME280;7845;53.698;10.078;2022-12-29T12:15:17;99535.06;;;11.38;100.00
15487;BME280;7845;53.698;10.078;2022-12-29T12:18:00;99538.69;;;11.34;100.00
15487;BME280;7845;53.698;10.078;2022-12-29T12:20:38;99547.47;;;11.32;100.00
15487;BME280;7845;53.698;10.078;2022-12-29T12:23:17;99541.41;;;11.31;100.00
15487;BME280;7845;53.698;10.078;2022-12-29T12:26:09;99544.78;;;11.35;100.00
15487;BME280;7845;53.698;10.078;2022-12-29T12:28:45;99539.66;;;11.32;100.00
15487;BME280;7845;53.698;10.078;2022-12-29T12:31:27;99534.25;;;11.36;100.00
15487;BME280;7845;53.698;10.078;2022-12-29T12:34:00;99541.22;;;11.37;100.00
15487;BME280;7845;53.698;10.078;2022-12-29T12:36:53;99537.94;;;11.29;100.00
15487;BME280;7845;53.698;10.078;2022-12-29T12:48:16;99537.81;;;11.34;100.00
15487;BME280;7845;53.698;10.078;2022-12-29T12:53:57;99536.34;;;11.25;100.00
15487;BME280;7845;53.698;10.078;2022-12-29T12:59:13;99531.03;;;11.28;100.00
15487;BME280;7845;53.698;10.078;2022-12-29T13:02:02;99546.84;;;11.24;100.00
15487;BME280;7845;53.698;10.078;2022-12-29T13:10:02;99542.47;;;11.24;100.00
15487;BME280;7845;53.698;10.078;2022-12-29T13:12:50;99547.00;;;11.19;100.00
15487;BME280;7845;53.698;10.078;2022-12-29T13:18:17;99547.09;;;11.16;100.00
15487;BME280;7845;53.698;10.078;2022-12-29T13:21:11;99548.03;;;11.14;100.00
15487;BME280;7845;53.698;10.078;2022-12-29T13:23:54;99564.53;;;11.14;100.00
15487;BME280;7845;53.698;10.078;2022-12-29T13:26:26;99567.13;;;11.16;100.00
15487;BME280;7845;53.698;10.078;2022-12-29T13:29:50;99566.16;;;11.18;100.00
15487;BME280;7845;53.698;10.078;2022-12-29T13:32:20;99569.00;;;11.10;100.00
15487;BME280;7845;53.698;10.078;2022-12-29T13:38:00;99595.16;;;11.09;100.00
15487;BME280;7845;53.698;10.078;2022-12-29T13:40:32;99603.84;;;11.09;100.00
15487;BME280;7845;53.698;10.078;2022-12-29T13:43:00;99617.94;;;11.04;100.00
15487;BME280;7845;53.698;10.078;2022-12-29T13:45:29;99623.41;;;10.95;100.00
15487;BME280;7845;53.698;10.078;2022-12-29T13:50:58;99625.59;;;10.79;100.00
15487;BME280;7845;53.698;10.078;2022-12-29T13:53:36;99629.94;;;10.79;100.00
15487;BME280;7845;53.698;10.078;2022-12-29T13:56:30;99631.59;;;10.83;100.00
15487;BME280;7845;53.698;10.078;2022-12-29T13:59:23;99620.59;;;10.72;100.00
15487;BME280;7845;53.698;10.078;2022-12-29T14:02:15;99623.34;;;10.66;100.00
15487;BME280;7845;53.698;10.078;2022-12-29T14:05:26;99620.00;;;10.61;100.00
15487;BME280;7845;53.698;10.078;2022-12-29T14:08:00;99621.25;;;10.46;100.00
15487;BME280;7845;53.698;10.078;2022-12-29T14:10:37;99628.28;;;10.42;100.00
15487;BME280;7845;53.698;10.078;2022-12-29T14:13:14;99641.31;;;10.44;100.00
15487;BME280;7845;53.698;10.078;2022-12-29T14:15:43;99637.03;;;10.41;100.00